sensor_id;sensor_type;location;lat;lon;timestamp;P1;durP1;ratioP1;P2;durP2;ratioP2
37937;SDS011;23763;48.130;11.602;2024-03-02T00:00:01;12.38;;;11.27;;
37937;SDS011;23763;48.130;11.602;2024-03-02T00:02:34;13.10;;;11.95;;
37937;SDS011;23763;48.130;11.602;2024-03-02T00:05:07;13.43;;;12.23;;
37937;SDS011;23763;48.130;11.602;2024-03-02T00:07:35;15.23;;;12.98;;
37937;SDS011;23763;48.130;11.602;2024-03-02T00:10:03;14.18;;;12.77;;
37937;SDS011;23763;48.130;11.602;2024-03-02T00:12:33;13.60;;;12.30;;
37937;SDS011;23763;48.130;11.602;2024-03-02T00:14:59;13.70;;;12.40;;
37937;SDS011;23763;48.130;11.602;2024-03-02T00:17:27;14.88;;;13.35;;
37937;SDS011;23763;48.130;11.602;2024-03-02T00:19:54;14.63;;;12.25;;
37937;SDS011;23763;48.130;11.602;2024-03-02T00:22:20;13.50;;;12.20;;
37937;SDS011;23763;48.130;11.602;2024-03-02T00:24:45;15.77;;;14.02;;
37937;SDS011;23763;48.130;11.602;2024-03-02T00:27:12;17.80;;;15.15;;
37937;SDS011;23763;48.130;11.602;2024-03-02T00:29:40;14.98;;;13.43;;
37937;SDS011;23763;48.130;11.602;2024-03-02T00:32:13;15.25;;;13.27;;
37937;SDS011;23763;48.130;11.602;2024-03-02T00:34:41;13.20;;;12.07;;
37937;SDS011;23763;48.130;11.602;2024-03-02T00:37:07;12.82;;;11.63;;
37937;SDS011;23763;48.130;11.602;2024-03-02T00:39:33;13.40;;;12.20;;
37937;SDS011;23763;48.130;11.602;2024-03-02T00:41:59;14.20;;;12.90;;
37937;SDS011;23763;48.130;11.602;2024-03-02T00:44:25;14.23;;;12.82;;
37937;SDS011;23763;48.130;11.602;2024-03-02T00:46:51;15.00;;;13.38;;
37937;SDS011;23763;48.130;11.602;2024-03-02T00:49:22;12.85;;;11.65;;
37937;SDS011;23763;48.130;11.602;2024-03-02T00:51:52;13.63;;;12.43;;
37937;SDS011;23763;48.130;11.602;2024-03-02T00:54:22;12.75;;;11.65;;
37937;SDS011;23763;48.130;11.602;2024-03-02T00:56:51;12.65;;;11.40;;
37937;SDS011;23763;48.130;11.602;2024-03-02T00:59:20;11.82;;;10.88;;
37937;SDS011;23763;48.130;11.602;2024-03-02T01:01:47;12.40;;;11.30;;
37937;SDS011;23763;48.130;11.602;2024-03-02T01:04:14;12.75;;;11.57;;
37937;SDS011;23763;48.130;11.602;2024-03-02T01:06:40;12.15;;;11.15;;
37937;SDS011;23763;48.130;11.602;2024-03-02T01:09:07;12.75;;;11.65;;
37937;SDS011;23763;48.130;11.602;2024-03-02T01:11:32;11.50;;;10.55;;
37937;SDS011;23763;48.130;11.602;2024-03-02T01:13:58;12.20;;;11.15;;
37937;SDS011;23763;48.130;11.602;2024-03-02T01:16:24;16.42;;;14.23;;
37937;SDS011;23763;48.130;11.602;2024-03-02T01:18:49;14.63;;;13.32;;
37937;SDS011;23763;48.130;11.602;2024-03-02T01:21:15;15.40;;;13.82;;
37937;SDS011;23763;48.130;11.602;2024-03-02T01:23:40;13.00;;;11.70;;
37937;SDS011;23763;48.130;11.602;2024-03-02T01:26:06;12.38;;;11.25;;
37937;SDS011;23763;48.130;11.602;2024-03-02T01:28:32;13.13;;;11.93;;
37937;SDS011;23763;48.130;11.602;2024-03-02T01:30:58;12.00;;;10.90;;
37937;SDS011;23763;48.130;11.602;2024-03-02T01:33:23;12.40;;;11.23;;
37937;SDS011;23763;48.130;11.602;2024-03-02T01:35:49;12.88;;;11.68;;
37937;SDS011;23763;48.130;11.602;2024-03-02T01:38:14;11.50;;;10.43;;
37937;SDS011;23763;48.130;11.602;2024-03-02T01:40:40;12.23;;;11.13;;
37937;SDS011;23763;48.130;11.602;2024-03-02T01:43:07;11.45;;;10.55;;
37937;SDS011;23763;48.130;11.602;2024-03-02T01:45:33;13.57;;;12.23;;
37937;SDS011;23763;48.130;11.602;2024-03-02T01:48:00;13.13;;;11.77;;
37937;SDS011;23763;48.130;11.602;2024-03-02T01:50:31;27.75;;;24.88;;
37937;SDS011;23763;48.130;11.602;2024-03-02T01:52:57;23.95;;;20.33;;
37937;SDS011;23763;48.130;11.602;2024-03-02T01:55:24;22.25;;;19.95;;
37937;SDS011;23763;48.130;11.602;2024-03-02T01:57:50;13.55;;;12.35;;
37937;SDS011;23763;48.130;11.602;2024-03-02T02:00:17;17.45;;;14.63;;
37937;SDS011;23763;48.130;11.602;2024-03-02T02:02:44;13.85;;;12.57;;
37937;SDS011;23763;48.130;11.602;2024-03-02T02:05:11;19.45;;;17.83;;
37937;SDS011;23763;48.130;11.602;2024-03-02T02:07:37;15.27;;;14.07;;
37937;SDS011;23763;48.130;11.602;2024-03-02T02:10:03;14.35;;;13.20;;
37937;SDS011;23763;48.130;11.602;2024-03-02T02:12:29;15.25;;;13.95;;
37937;SDS011;23763;48.130;11.602;2024-03-02T02:14:55;15.80;;;13.98;;
37937;SDS011;23763;48.130;11.602;2024-03-02T02:17:20;12.73;;;11.52;;
37937;SDS011;23763;48.130;11.602;2024-03-02T02:19:46;46.10;;;26.55;;
37937;SDS011;23763;48.130;11.602;2024-03-02T02:22:12;14.98;;;13.43;;
37937;SDS011;23763;48.130;11.602;2024-03-02T02:24:41;13.85;;;12.55;;
37937;SDS011;23763;48.130;11.602;2024-03-02T02:27:07;14.65;;;13.23;;
37937;SDS011;23763;48.130;11.602;2024-03-02T02:29:33;14.32;;;12.93;;
37937;SDS011;23763;48.130;11.602;2024-03-02T02:31:59;13.82;;;12.40;;
37937;SDS011;23763;48.130;11.602;2024-03-02T02:34:25;15.68;;;13.80;;
37937;SDS011;23763;48.130;11.602;2024-03-02T02:36:51;12.77;;;11.60;;
37937;SDS011;23763;48.130;11.602;2024-03-02T02:39:17;18.73;;;16.92;;
37937;SDS011;23763;48.130;11.602;2024-03-02T02:41:46;12.63;;;11.45;;
37937;SDS011;23763;48.130;11.602;2024-03-02T02:44:11;12.73;;;11.63;;
37937;SDS011;23763;48.130;11.602;2024-03-02T02:46:38;11.23;;;10.32;;
37937;SDS011;23763;48.130;11.602;2024-03-02T02:49:04;13.68;;;12.27;;
37937;SDS011;23763;48.130;11.602;2024-03-02T02:51:30;13.75;;;12.68;;
37937;SDS011;23763;48.130;11.602;2024-03-02T02:53:56;11.55;;;10.65;;
37937;SDS011;23763;48.130;11.602;2024-03-02T02:56:21;13.35;;;12.25;;
37937;SDS011;23763;48.130;11.602;2024-03-02T02:58:47;12.05;;;11.07;;
37937;SDS011;23763;48.130;11.602;2024-03-02T03:01:13;16.52;;;15.02;;
37937;SDS011;23763;48.130;11.602;2024-03-02T03:03:40;11.65;;;10.65;;
37937;SDS011;23763;48.130;11.602;2024-03-02T03:06:05;11.38;;;10.48;;
37937;SDS011;23763;48.130;11.602;2024-03-02T03:08:31;10.90;;;10.00;;
37937;SDS011;23763;48.130;11.602;2024-03-02T03:10:57;10.75;;;9.77;;
37937;SDS011;23763;48.130;11.602;2024-03-02T03:13:22;14.38;;;13.02;;
37937;SDS011;23763;48.130;11.602;2024-03-02T03:15:48;11.77;;;10.88;;
37937;SDS011;23763;48.130;11.602;2024-03-02T03:18:14;11.57;;;10.68;;
37937;SDS011;23763;48.130;11.602;2024-03-02T03:20:39;11.60;;;10.70;;
37937;SDS011;23763;48.130;11.602;2024-03-02T03:23:05;11.88;;;10.80;;
37937;SDS011;23763;48.130;11.602;2024-03-02T03:25:31;11.82;;;10.82;;
37937;SDS011;23763;48.130;11.602;2024-03-02T03:27:56;11.18;;;10.27;;
37937;SDS011;23763;48.130;11.602;2024-03-02T03:30:22;11.20;;;10.30;;
37937;SDS011;23763;48.130;11.602;2024-03-02T03:32:48;10.68;;;9.88;;
37937;SDS011;23763;48.130;11.602;2024-03-02T03:35:13;12.20;;;11.20;;
37937;SDS011;23763;48.130;11.602;2024-03-02T03:37:41;11.80;;;10.80;;
37937;SDS011;23763;48.130;11.602;2024-03-02T03:40:06;12.15;;;11.15;;
37937;SDS011;23763;48.130;11.602;2024-03-02T03:42:38;12.13;;;11.13;;
37937;SDS011;23763;48.130;11.602;2024-03-02T03:45:04;12.32;;;11.43;;
37937;SDS011;23763;48.130;11.602;2024-03-02T03:47:33;12.75;;;11.65;;
37937;SDS011;23763;48.130;11.602;2024-03-02T03:49:59;12.20;;;11.15;;
37937;SDS011;23763;48.130;11.602;2024-03-02T03:52:30;12.55;;;11.45;;
37937;SDS011;23763;48.130;11.602;2024-03-02T03:54:56;11.63;;;10.73;;
37937;SDS011;23763;48.130;11.602;2024-03-02T03:57:21;12.38;;;11.38;;
37937;SDS011;23763;48.130;11.602;2024-03-02T03:59:47;12.20;;;11.20;;
37937;SDS011;23763;48.130;11.602;2024-03-02T04:02:12;12.63;;;11.63;;
37937;SDS011;23763;48.130;11.602;2024-03-02T04:04:38;13.27;;;12.20;;
37937;SDS011;23763;48.130;11.602;2024-03-02T04:07:04;12.07;;;10.98;;
37937;SDS011;23763;48.130;11.602;2024-03-02T04:09:29;13.18;;;12.10;;
37937;SDS011;23763;48.130;11.602;2024-03-02T04:11:55;13.38;;;12.25;;
37937;SDS011;23763;48.130;11.602;2024-03-02T04:14:21;12.75;;;11.65;;
37937;SDS011;23763;48.130;11.602;2024-03-02T04:16:46;12.93;;;11.82;;
37937;SDS011;23763;48.130;11.602;2024-03-02T04:19:12;12.73;;;11.63;;
37937;SDS011;23763;48.130;11.602;2024-03-02T04:21:37;13.90;;;12.70;;
37937;SDS011;23763;48.130;11.602;2024-03-02T04:24:03;12.75;;;11.70;;
37937;SDS011;23763;48.130;11.602;2024-03-02T04:26:29;12.93;;;11.82;;
37937;SDS011;23763;48.130;11.602;2024-03-02T04:28:54;14.52;;;13.20;;
37937;SDS011;23763;48.130;11.602;2024-03-02T04:31:20;14.57;;;13.27;;
37937;SDS011;23763;48.130;11.602;2024-03-02T04:33:46;13.45;;;12.27;;
37937;SDS011;23763;48.130;11.602;2024-03-02T04:36:11;14.60;;;13.15;;
37937;SDS011;23763;48.130;11.602;2024-03-02T04:38:37;13.85;;;12.55;;
37937;SDS011;23763;48.130;11.602;2024-03-02T04:41:06;13.95;;;12.75;;
37937;SDS011;23763;48.130;11.602;2024-03-02T04:43:32;15.15;;;13.65;;
37937;SDS011;23763;48.130;11.602;2024-03-02T04:45:59;13.25;;;12.05;;
37937;SDS011;23763;48.130;11.602;2024-03-02T04:48:24;12.73;;;11.63;;
37937;SDS011;23763;48.130;11.602;2024-03-02T04:50:50;13.40;;;12.27;;
37937;SDS011;23763;48.130;11.602;2024-03-02T04:53:16;13.88;;;12.65;;
37937;SDS011;23763;48.130;11.602;2024-03-02T04:55:41;13.02;;;11.82;;
37937;SDS011;23763;48.130;11.602;2024-03-02T04:58:07;13.77;;;12.68;;
37937;SDS011;23763;48.130;11.602;2024-03-02T05:00:33;15.98;;;14.38;;
37937;SDS011;23763;48.130;11.602;2024-03-02T05:02:59;13.68;;;12.40;;
37937;SDS011;23763;48.130;11.602;2024-03-02T05:05:25;13.57;;;12.40;;
37937;SDS011;23763;48.130;11.602;2024-03-02T05:07:51;14.80;;;13.25;;
37937;SDS011;23763;48.130;11.602;2024-03-02T05:10:17;14.13;;;12.82;;
37937;SDS011;23763;48.130;11.602;2024-03-02T05:12:42;15.00;;;13.57;;
37937;SDS011;23763;48.130;11.602;2024-03-02T05:15:12;14.20;;;12.77;;
37937;SDS011;23763;48.130;11.602;2024-03-02T05:17:39;14.43;;;13.23;;
37937;SDS011;23763;48.130;11.602;2024-03-02T05:20:06;14.85;;;13.38;;
37937;SDS011;23763;48.130;11.602;2024-03-02T05:22:35;14.77;;;13.38;;
37937;SDS011;23763;48.130;11.602;2024-03-02T05:25:01;13.82;;;12.63;;
37937;SDS011;23763;48.130;11.602;2024-03-02T05:27:28;14.30;;;12.98;;
37937;SDS011;23763;48.130;11.602;2024-03-02T05:29:53;14.73;;;13.25;;
37937;SDS011;23763;48.130;11.602;2024-03-02T05:32:19;14.00;;;12.70;;
37937;SDS011;23763;48.130;11.602;2024-03-02T05:34:45;14.88;;;13.48;;
37937;SDS011;23763;48.130;11.602;2024-03-02T05:37:10;14.02;;;12.73;;
37937;SDS011;23763;48.130;11.602;2024-03-02T05:39:36;13.60;;;12.40;;
37937;SDS011;23763;48.130;11.602;2024-03-02T05:42:02;14.45;;;12.95;;
37937;SDS011;23763;48.130;11.602;2024-03-02T05:44:28;13.65;;;12.45;;
37937;SDS011;23763;48.130;11.602;2024-03-02T05:46:54;15.05;;;13.73;;
37937;SDS011;23763;48.130;11.602;2024-03-02T05:49:20;14.50;;;13.10;;
37937;SDS011;23763;48.130;11.602;2024-03-02T05:51:45;13.98;;;12.68;;
37937;SDS011;23763;48.130;11.602;2024-03-02T05:54:11;15.65;;;14.23;;
37937;SDS011;23763;48.130;11.602;2024-03-02T05:56:37;15.57;;;13.98;;
37937;SDS011;23763;48.130;11.602;2024-03-02T05:59:02;15.10;;;13.70;;
37937;SDS011;23763;48.130;11.602;2024-03-02T06:01:47;14.43;;;13.02;;
37937;SDS011;23763;48.130;11.602;2024-03-02T06:04:15;14.50;;;13.20;;
37937;SDS011;23763;48.130;11.602;2024-03-02T06:06:41;14.40;;;13.15;;
37937;SDS011;23763;48.130;11.602;2024-03-02T06:09:06;13.95;;;12.65;;
37937;SDS011;23763;48.130;11.602;2024-03-02T06:11:39;13.65;;;12.40;;
37937;SDS011;23763;48.130;11.602;2024-03-02T06:14:06;14.60;;;13.40;;
37937;SDS011;23763;48.130;11.602;2024-03-02T06:16:33;13.70;;;12.50;;
37937;SDS011;23763;48.130;11.602;2024-03-02T06:18:59;14.75;;;13.35;;
37937;SDS011;23763;48.130;11.602;2024-03-02T06:21:32;14.95;;;13.55;;
37937;SDS011;23763;48.130;11.602;2024-03-02T06:23:58;14.60;;;13.30;;
37937;SDS011;23763;48.130;11.602;2024-03-02T06:26:24;14.98;;;13.57;;
37937;SDS011;23763;48.130;11.602;2024-03-02T06:28:49;15.50;;;14.00;;
37937;SDS011;23763;48.130;11.602;2024-03-02T06:31:15;14.80;;;13.55;;
37937;SDS011;23763;48.130;11.602;2024-03-02T06:33:41;16.00;;;14.50;;
37937;SDS011;23763;48.130;11.602;2024-03-02T06:36:07;15.00;;;13.63;;
37937;SDS011;23763;48.130;11.602;2024-03-02T06:38:34;15.43;;;14.13;;
37937;SDS011;23763;48.130;11.602;2024-03-02T06:41:00;15.45;;;13.95;;
37937;SDS011;23763;48.130;11.602;2024-03-02T06:43:26;15.80;;;14.30;;
37937;SDS011;23763;48.130;11.602;2024-03-02T06:45:51;16.08;;;14.68;;
37937;SDS011;23763;48.130;11.602;2024-03-02T06:48:17;14.82;;;13.52;;
37937;SDS011;23763;48.130;11.602;2024-03-02T06:50:48;16.92;;;15.32;;
37937;SDS011;23763;48.130;11.602;2024-03-02T06:53:14;15.73;;;14.15;;
37937;SDS011;23763;48.130;11.602;2024-03-02T06:55:44;16.27;;;14.68;;
37937;SDS011;23763;48.130;11.602;2024-03-02T06:58:11;16.40;;;14.90;;
37937;SDS011;23763;48.130;11.602;2024-03-02T07:00:37;17.33;;;15.55;;
37937;SDS011;23763;48.130;11.602;2024-03-02T07:03:03;17.98;;;15.85;;
37937;SDS011;23763;48.130;11.602;2024-03-02T07:05:29;18.65;;;16.35;;
37937;SDS011;23763;48.130;11.602;2024-03-02T07:07:54;20.92;;;18.02;;
37937;SDS011;23763;48.130;11.602;2024-03-02T07:10:20;19.48;;;17.50;;
37937;SDS011;23763;48.130;11.602;2024-03-02T07:12:46;17.42;;;15.77;;
37937;SDS011;23763;48.130;11.602;2024-03-02T07:15:11;19.50;;;16.15;;
37937;SDS011;23763;48.130;11.602;2024-03-02T07:17:53;17.90;;;16.02;;
37937;SDS011;23763;48.130;11.602;2024-03-02T07:20:19;21.92;;;17.75;;
37937;SDS011;23763;48.130;11.602;2024-03-02T07:22:45;24.67;;;17.23;;
37937;SDS011;23763;48.130;11.602;2024-03-02T07:25:11;21.88;;;16.58;;
37937;SDS011;23763;48.130;11.602;2024-03-02T07:27:37;20.13;;;17.35;;
37937;SDS011;23763;48.130;11.602;2024-03-02T07:30:04;27.45;;;17.73;;
37937;SDS011;23763;48.130;11.602;2024-03-02T07:32:30;20.10;;;16.10;;
37937;SDS011;23763;48.130;11.602;2024-03-02T07:34:55;18.88;;;16.90;;
37937;SDS011;23763;48.130;11.602;2024-03-02T07:37:22;57.22;;;34.10;;
37937;SDS011;23763;48.130;11.602;2024-03-02T07:39:48;73.03;;;43.88;;
37937;SDS011;23763;48.130;11.602;2024-03-02T07:42:14;20.55;;;17.02;;
37937;SDS011;23763;48.130;11.602;2024-03-02T07:44:40;18.98;;;17.00;;
37937;SDS011;23763;48.130;11.602;2024-03-02T07:47:06;17.80;;;16.02;;
37937;SDS011;23763;48.130;11.602;2024-03-02T07:49:31;17.55;;;15.73;;
37937;SDS011;23763;48.130;11.602;2024-03-02T07:51:57;20.23;;;16.52;;
37937;SDS011;23763;48.130;11.602;2024-03-02T07:54:23;17.90;;;15.93;;
37937;SDS011;23763;48.130;11.602;2024-03-02T07:56:49;18.42;;;16.35;;
37937;SDS011;23763;48.130;11.602;2024-03-02T07:59:15;18.48;;;16.38;;
37937;SDS011;23763;48.130;11.602;2024-03-02T08:01:41;20.10;;;16.92;;
37937;SDS011;23763;48.130;11.602;2024-03-02T08:04:06;19.35;;;16.20;;
37937;SDS011;23763;48.130;11.602;2024-03-02T08:06:32;16.55;;;14.88;;
37937;SDS011;23763;48.130;11.602;2024-03-02T08:08:58;18.35;;;15.63;;
37937;SDS011;23763;48.130;11.602;2024-03-02T08:11:24;17.60;;;15.85;;
37937;SDS011;23763;48.130;11.602;2024-03-02T08:13:50;19.67;;;17.45;;
37937;SDS011;23763;48.130;11.602;2024-03-02T08:16:17;18.38;;;16.38;;
37937;SDS011;23763;48.130;11.602;2024-03-02T08:18:49;16.77;;;15.07;;
37937;SDS011;23763;48.130;11.602;2024-03-02T08:21:15;15.07;;;13.57;;
37937;SDS011;23763;48.130;11.602;2024-03-02T08:23:42;16.40;;;14.90;;
37937;SDS011;23763;48.130;11.602;2024-03-02T08:26:08;25.15;;;20.30;;
37937;SDS011;23763;48.130;11.602;2024-03-02T08:28:34;22.58;;;19.48;;
37937;SDS011;23763;48.130;11.602;2024-03-02T08:31:02;17.50;;;15.80;;
37937;SDS011;23763;48.130;11.602;2024-03-02T08:33:31;18.08;;;16.25;;
37937;SDS011;23763;48.130;11.602;2024-03-02T08:35:57;20.77;;;18.30;;
37937;SDS011;23763;48.130;11.602;2024-03-02T08:38:22;17.60;;;15.85;;
37937;SDS011;23763;48.130;11.602;2024-03-02T08:40:49;25.02;;;19.17;;
37937;SDS011;23763;48.130;11.602;2024-03-02T08:43:15;18.13;;;16.17;;
37937;SDS011;23763;48.130;11.602;2024-03-02T08:45:40;17.48;;;15.80;;
37937;SDS011;23763;48.130;11.602;2024-03-02T08:48:09;19.05;;;17.05;;
37937;SDS011;23763;48.130;11.602;2024-03-02T08:50:36;17.33;;;15.48;;
37937;SDS011;23763;48.130;11.602;2024-03-02T08:53:02;19.80;;;16.98;;
37937;SDS011;23763;48.130;11.602;2024-03-02T08:55:28;18.15;;;16.25;;
37937;SDS011;23763;48.130;11.602;2024-03-02T08:57:54;17.25;;;15.55;;
37937;SDS011;23763;48.130;11.602;2024-03-02T09:00:20;18.73;;;16.92;;
37937;SDS011;23763;48.130;11.602;2024-03-02T09:02:46;17.02;;;15.40;;
37937;SDS011;23763;48.130;11.602;2024-03-02T09:05:12;17.17;;;15.48;;
37937;SDS011;23763;48.130;11.602;2024-03-02T09:07:38;15.95;;;14.50;;
37937;SDS011;23763;48.130;11.602;2024-03-02T09:10:06;16.83;;;15.02;;
37937;SDS011;23763;48.130;11.602;2024-03-02T09:12:33;15.70;;;14.25;;
37937;SDS011;23763;48.130;11.602;2024-03-02T09:14:59;16.17;;;14.63;;
37937;SDS011;23763;48.130;11.602;2024-03-02T09:17:26;21.60;;;14.95;;
37937;SDS011;23763;48.130;11.602;2024-03-02T09:19:51;16.95;;;14.88;;
37937;SDS011;23763;48.130;11.602;2024-03-02T09:22:18;15.60;;;14.05;;
37937;SDS011;23763;48.130;11.602;2024-03-02T09:24:44;16.60;;;14.90;;
37937;SDS011;23763;48.130;11.602;2024-03-02T09:27:09;17.98;;;15.07;;
37937;SDS011;23763;48.130;11.602;2024-03-02T09:29:36;15.80;;;14.00;;
37937;SDS011;23763;48.130;11.602;2024-03-02T09:32:02;13.45;;;12.15;;
37937;SDS011;23763;48.130;11.602;2024-03-02T09:34:29;13.00;;;11.70;;
37937;SDS011;23763;48.130;11.602;2024-03-02T09:36:54;12.30;;;11.10;;
37937;SDS011;23763;48.130;11.602;2024-03-02T09:39:20;11.98;;;10.77;;
37937;SDS011;23763;48.130;11.602;2024-03-02T09:41:47;12.15;;;11.15;;
37937;SDS011;23763;48.130;11.602;2024-03-02T09:44:13;15.35;;;12.13;;
37937;SDS011;23763;48.130;11.602;2024-03-02T09:46:42;13.15;;;11.90;;
37937;SDS011;23763;48.130;11.602;2024-03-02T09:49:09;14.68;;;12.70;;
37937;SDS011;23763;48.130;11.602;2024-03-02T09:51:36;15.13;;;13.63;;
37937;SDS011;23763;48.130;11.602;2024-03-02T09:54:02;12.77;;;11.65;;
37937;SDS011;23763;48.130;11.602;2024-03-02T09:56:28;15.45;;;13.85;;
37937;SDS011;23763;48.130;11.602;2024-03-02T09:58:54;13.90;;;12.52;;
37937;SDS011;23763;48.130;11.602;2024-03-02T10:01:19;14.20;;;12.85;;
37937;SDS011;23763;48.130;11.602;2024-03-02T10:03:45;16.13;;;12.27;;
37937;SDS011;23763;48.130;11.602;2024-03-02T10:06:21;16.73;;;14.88;;
37937;SDS011;23763;48.130;11.602;2024-03-02T10:08:47;13.10;;;11.90;;
37937;SDS011;23763;48.130;11.602;2024-03-02T10:11:35;15.45;;;13.85;;
37937;SDS011;23763;48.130;11.602;2024-03-02T10:14:09;11.88;;;10.85;;
37937;SDS011;23763;48.130;11.602;2024-03-02T10:16:39;13.23;;;12.02;;
37937;SDS011;23763;48.130;11.602;2024-03-02T10:19:16;15.13;;;13.52;;
37937;SDS011;23763;48.130;11.602;2024-03-02T10:21:46;13.00;;;11.70;;
37937;SDS011;23763;48.130;11.602;2024-03-02T10:24:12;13.50;;;12.10;;
37937;SDS011;23763;48.130;11.602;2024-03-02T10:26:38;19.23;;;16.52;;
37937;SDS011;23763;48.130;11.602;2024-03-02T10:29:04;12.02;;;10.82;;
37937;SDS011;23763;48.130;11.602;2024-03-02T10:31:30;11.60;;;10.40;;
37937;SDS011;23763;48.130;11.602;2024-03-02T10:33:56;12.80;;;10.93;;
37937;SDS011;23763;48.130;11.602;2024-03-02T10:36:23;12.70;;;11.40;;
37937;SDS011;23763;48.130;11.602;2024-03-02T10:38:50;12.73;;;11.43;;
37937;SDS011;23763;48.130;11.602;2024-03-02T10:41:20;14.05;;;11.80;;
37937;SDS011;23763;48.130;11.602;2024-03-02T10:43:49;12.18;;;10.98;;
37937;SDS011;23763;48.130;11.602;2024-03-02T10:46:19;15.35;;;13.27;;
37937;SDS011;23763;48.130;11.602;2024-03-02T10:48:45;17.42;;;15.07;;
37937;SDS011;23763;48.130;11.602;2024-03-02T10:51:11;19.38;;;16.10;;
37937;SDS011;23763;48.130;11.602;2024-03-02T10:53:37;18.73;;;15.25;;
37937;SDS011;23763;48.130;11.602;2024-03-02T10:56:03;19.10;;;16.35;;
37937;SDS011;23763;48.130;11.602;2024-03-02T10:58:34;17.80;;;14.48;;
37937;SDS011;23763;48.130;11.602;2024-03-02T11:01:02;21.25;;;16.17;;
37937;SDS011;23763;48.130;11.602;2024-03-02T11:03:33;21.13;;;16.05;;
37937;SDS011;23763;48.130;11.602;2024-03-02T11:06:00;20.15;;;16.40;;
37937;SDS011;23763;48.130;11.602;2024-03-02T11:08:31;20.27;;;16.92;;
37937;SDS011;23763;48.130;11.602;2024-03-02T11:11:05;22.05;;;17.20;;
37937;SDS011;23763;48.130;11.602;2024-03-02T11:13:35;19.73;;;15.35;;
37937;SDS011;23763;48.130;11.602;2024-03-02T11:16:16;16.40;;;14.55;;
37937;SDS011;23763;48.130;11.602;2024-03-02T11:19:02;20.00;;;15.02;;
37937;SDS011;23763;48.130;11.602;2024-03-02T11:21:30;16.77;;;14.00;;
37937;SDS011;23763;48.130;11.602;2024-03-02T11:23:58;17.83;;;15.90;;
37937;SDS011;23763;48.130;11.602;2024-03-02T11:26:24;17.85;;;15.25;;
37937;SDS011;23763;48.130;11.602;2024-03-02T11:28:50;17.80;;;14.30;;
37937;SDS011;23763;48.130;11.602;2024-03-02T11:31:16;17.85;;;15.23;;
37937;SDS011;23763;48.130;11.602;2024-03-02T11:33:42;17.50;;;14.15;;
37937;SDS011;23763;48.130;11.602;2024-03-02T11:36:08;15.80;;;14.18;;
37937;SDS011;23763;48.130;11.602;2024-03-02T11:38:37;19.58;;;14.70;;
37937;SDS011;23763;48.130;11.602;2024-03-02T11:41:07;16.77;;;14.48;;
37937;SDS011;23763;48.130;11.602;2024-03-02T11:43:39;18.10;;;14.82;;
37937;SDS011;23763;48.130;11.602;2024-03-02T11:46:05;15.40;;;13.55;;
37937;SDS011;23763;48.130;11.602;2024-03-02T11:48:32;14.95;;;13.13;;
37937;SDS011;23763;48.130;11.602;2024-03-02T11:51:00;13.95;;;11.93;;
37937;SDS011;23763;48.130;11.602;2024-03-02T11:53:26;15.43;;;12.07;;
37937;SDS011;23763;48.130;11.602;2024-03-02T11:56:08;14.98;;;13.38;;
37937;SDS011;23763;48.130;11.602;2024-03-02T11:58:36;13.32;;;11.80;;
37937;SDS011;23763;48.130;11.602;2024-03-02T12:01:03;17.13;;;13.38;;
37937;SDS011;23763;48.130;11.602;2024-03-02T12:03:29;16.33;;;13.90;;
37937;SDS011;23763;48.130;11.602;2024-03-02T12:06:15;15.38;;;13.70;;
37937;SDS011;23763;48.130;11.602;2024-03-02T12:08:42;15.60;;;14.02;;
37937;SDS011;23763;48.130;11.602;2024-03-02T12:11:09;16.45;;;13.95;;
37937;SDS011;23763;48.130;11.602;2024-03-02T12:13:38;14.57;;;13.07;;
37937;SDS011;23763;48.130;11.602;2024-03-02T12:16:04;17.42;;;14.18;;
37937;SDS011;23763;48.130;11.602;2024-03-02T12:18:30;18.25;;;13.77;;
37937;SDS011;23763;48.130;11.602;2024-03-02T12:20:56;18.13;;;15.10;;
37937;SDS011;23763;48.130;11.602;2024-03-02T12:23:23;16.10;;;14.23;;
37937;SDS011;23763;48.130;11.602;2024-03-02T12:25:49;16.45;;;14.70;;
37937;SDS011;23763;48.130;11.602;2024-03-02T12:28:15;16.08;;;14.45;;
37937;SDS011;23763;48.130;11.602;2024-03-02T12:30:41;18.55;;;16.48;;
37937;SDS011;23763;48.130;11.602;2024-03-02T12:33:06;16.52;;;14.93;;
37937;SDS011;23763;48.130;11.602;2024-03-02T12:35:32;16.75;;;13.90;;
37937;SDS011;23763;48.130;11.602;2024-03-02T12:37:58;16.92;;;14.75;;
37937;SDS011;23763;48.130;11.602;2024-03-02T12:40:23;17.92;;;16.02;;
37937;SDS011;23763;48.130;11.602;2024-03-02T12:42:49;20.80;;;18.38;;
37937;SDS011;23763;48.130;11.602;2024-03-02T12:45:16;22.08;;;19.77;;
37937;SDS011;23763;48.130;11.602;2024-03-02T12:47:48;21.15;;;18.58;;
37937;SDS011;23763;48.130;11.602;2024-03-02T12:50:14;17.00;;;15.20;;
37937;SDS011;23763;48.130;11.602;2024-03-02T12:52:40;15.68;;;13.10;;
37937;SDS011;23763;48.130;11.602;2024-03-02T12:55:06;14.07;;;12.10;;
37937;SDS011;23763;48.130;11.602;2024-03-02T12:57:32;13.55;;;12.13;;
37937;SDS011;23763;48.130;11.602;2024-03-02T12:59:59;14.40;;;12.90;;
37937;SDS011;23763;48.130;11.602;2024-03-02T13:02:28;13.32;;;11.57;;
37937;SDS011;23763;48.130;11.602;2024-03-02T13:04:56;14.40;;;12.75;;
37937;SDS011;23763;48.130;11.602;2024-03-02T13:07:23;16.45;;;14.75;;
37937;SDS011;23763;48.130;11.602;2024-03-02T13:09:50;20.92;;;18.05;;
37937;SDS011;23763;48.130;11.602;2024-03-02T13:12:17;20.88;;;18.63;;
37937;SDS011;23763;48.130;11.602;2024-03-02T13:14:44;19.45;;;16.50;;
37937;SDS011;23763;48.130;11.602;2024-03-02T13:17:12;20.90;;;17.33;;
37937;SDS011;23763;48.130;11.602;2024-03-02T13:19:43;19.88;;;17.67;;
37937;SDS011;23763;48.130;11.602;2024-03-02T13:22:22;20.60;;;17.83;;
37937;SDS011;23763;48.130;11.602;2024-03-02T13:24:48;23.80;;;20.48;;
37937;SDS011;23763;48.130;11.602;2024-03-02T13:27:14;22.30;;;19.92;;
37937;SDS011;23763;48.130;11.602;2024-03-02T13:29:41;19.75;;;17.65;;
37937;SDS011;23763;48.130;11.602;2024-03-02T13:32:07;16.00;;;14.50;;
37937;SDS011;23763;48.130;11.602;2024-03-02T13:34:34;16.13;;;14.35;;
37937;SDS011;23763;48.130;11.602;2024-03-02T13:37:01;18.42;;;15.65;;
37937;SDS011;23763;48.130;11.602;2024-03-02T13:39:27;20.05;;;17.70;;
37937;SDS011;23763;48.130;11.602;2024-03-02T13:41:55;19.92;;;17.77;;
37937;SDS011;23763;48.130;11.602;2024-03-02T13:44:30;19.58;;;17.15;;
37937;SDS011;23763;48.130;11.602;2024-03-02T13:46:56;21.63;;;18.70;;
37937;SDS011;23763;48.130;11.602;2024-03-02T13:49:23;21.20;;;17.73;;
37937;SDS011;23763;48.130;11.602;2024-03-02T13:51:49;21.50;;;19.20;;
37937;SDS011;23763;48.130;11.602;2024-03-02T13:54:15;22.38;;;18.52;;
37937;SDS011;23763;48.130;11.602;2024-03-02T13:56:40;20.75;;;18.60;;
37937;SDS011;23763;48.130;11.602;2024-03-02T13:59:06;20.38;;;17.10;;
37937;SDS011;23763;48.130;11.602;2024-03-02T14:01:33;15.88;;;14.18;;
37937;SDS011;23763;48.130;11.602;2024-03-02T14:03:59;14.95;;;13.27;;
37937;SDS011;23763;48.130;11.602;2024-03-02T14:06:24;15.60;;;13.82;;